Time;durP1;ratioP1;P1;durP2;ratioP2;P2;SDS_P1;SDS_P2;PMS_P1;PMS_P2;Temp;Humidity;BMP_temperature;BMP_pressure;BME280_temperature;BME280_humidity;BME280_pressure;Samples;Min_cycle;Max_cycle;Signal;HPM_P1;HPM_P2
2023/01/06 00:01:05;;;;;;;6.68;2.08;;;;;;;8.24;100.00;99631.59;5087941;28;20502;-79
2023/01/06 00:03:33;;;;;;;2.60;1.80;;;;;;;8.46;100.00;99665.44;5078887;28;20410;-79
2023/01/06 00:06:01;;;;;;;5.80;2.15;;;;;;;8.48;100.00;99649.88;5086993;28;20058;-80
2023/01/06 00:08:28;;;;;;;4.45;2.00;;;;;;;8.42;100.00;99642.38;5088737;28;20055;-79
2023/01/06 00:10:55;;;;;;;2.95;1.85;;;;;;;8.50;100.00;99651.41;5083980;28;20079;-80
2023/01/06 00:13:22;;;;;;;3.58;2.55;;;;;;;8.49;100.00;99644.31;5082545;28;20403;-80
2023/01/06 00:15:48;;;;;;;2.72;1.90;;;;;;;8.59;100.00;99651.47;5093681;28;20501;-79
2023/01/06 00:18:15;;;;;;;8.05;1.80;;;;;;;8.69;100.00;99657.63;5086563;28;20517;-79
2023/01/06 00:20:43;;;;;;;4.30;1.58;;;;;;;8.52;100.00;99624.19;5084933;28;20052;-79
2023/01/06 00:23:09;;;;;;;2.17;1.42;;;;;;;8.56;100.00;99636.38;5092663;28;20044;-80
2023/01/06 00:25:37;;;;;;;3.65;1.85;;;;;;;8.49;100.00;99624.47;5088446;28;20059;-79
2023/01/06 00:28:03;;;;;;;5.32;1.63;;;;;;;8.55;100.00;99636.53;5088382;28;20048;-80
2023/01/06 00:30:30;;;;;;;4.60;1.88;;;;;;;8.50;100.00;99626.19;5084780;28;20040;-79
2023/01/06 00:32:56;;;;;;;2.67;1.67;;;;;;;8.60;100.00;99645.06;5083086;28;20312;-79
2023/01/06 00:35:23;;;;;;;3.10;1.77;;;;;;;8.69;100.00;99633.25;5081058;28;20044;-79
2023/01/06 00:37:51;;;;;;;4.72;1.60;;;;;;;8.63;100.00;99623.06;5090956;28;20051;-79
2023/01/06 00:40:17;;;;;;;3.05;1.67;;;;;;;8.54;100.00;99615.91;5088932;28;20044;-79
2023/01/06 00:42:44;;;;;;;3.63;2.00;;;;;;;8.46;100.00;99598.56;5087309;28;20058;-79
2023/01/06 00:45:11;;;;;;;3.25;1.70;;;;;;;8.55;100.00;99612.16;5082877;28;20044;-79
2023/01/06 00:47:37;;;;;;;3.47;1.80;;;;;;;8.56;100.00;99609.28;5079385;28;20048;-79
2023/01/06 00:50:04;;;;;;;4.55;1.50;;;;;;;8.32;100.00;99600.00;5083368;28;20481;-80
2023/01/06 00:52:31;;;;;;;2.72;1.52;;;;;;;8.23;100.00;99581.94;5080147;28;20407;-79
2023/01/06 00:54:59;;;;;;;5.25;1.90;;;;;;;8.47;100.00;99607.53;5090728;28;20046;-80
2023/01/06 00:57:26;;;;;;;2.92;1.92;;;;;;;8.17;100.00;99592.59;5082952;28;20051;-79
2023/01/06 00:59:52;;;;;;;4.57;2.13;;;;;;;8.25;100.00;99592.63;5081806;28;20052;-79
2023/01/06 01:02:20;;;;;;;2.95;2.33;;;;;;;8.20;100.00;99597.69;5076538;28;20036;-79
2023/01/06 01:04:46;;;;;;;3.15;1.90;;;;;;;8.06;100.00;99585.59;5080356;28;20055;-79
2023/01/06 01:07:13;;;;;;;1.83;1.40;;;;;;;8.06;100.00;99577.47;5087085;28;20549;-79
2023/01/06 01:09:39;;;;;;;5.70;1.63;;;;;;;8.12;100.00;99596.63;5087645;28;20062;-79
2023/01/06 01:12:09;;;;;;;5.72;2.33;;;;;;;8.16;100.00;99599.88;5080346;28;20044;-79
2023/01/06 01:14:36;;;;;;;4.95;1.98;;;;;;;8.10;100.00;99597.78;5088755;28;20118;-79
2023/01/06 01:17:03;;;;;;;8.18;1.90;;;;;;;8.06;100.00;99578.28;5094911;28;20486;-79
2023/01/06 01:19:30;;;;;;;4.03;1.75;;;;;;;8.23;100.00;99610.91;5088264;28;20048;-79
2023/01/06 01:21:57;;;;;;;3.25;2.08;;;;;;;8.13;100.00;99579.38;5089626;28;20499;-79
2023/01/06 01:24:24;;;;;;;4.88;2.10;;;;;;;8.20;100.00;99598.53;5090772;28;20490;-79
2023/01/06 01:26:50;;;;;;;2.58;1.70;;;;;;;8.13;100.00;99579.38;5090957;28;20074;-79
2023/01/06 01:29:19;;;;;;;4.00;1.90;;;;;;;8.35;100.00;99601.50;5085084;28;20414;-79
2023/01/06 01:31:46;;;;;;;4.07;2.25;;;;;;;8.25;100.00;99603.47;5092878;28;20051;-79
2023/01/06 01:34:15;;;;;;;4.75;1.95;;;;;;;8.11;100.00;99580.53;5087945;28;20052;-79
2023/01/06 01:36:43;;;;;;;4.57;2.42;;;;;;;8.24;100.00;99597.22;5077294;28;20055;-79
2023/01/06 01:39:10;;;;;;;4.35;1.92;;;;;;;8.03;100.00;99570.50;5094040;28;20058;-79
2023/01/06 01:41:37;;;;;;;3.55;1.70;;;;;;;8.15;100.00;99577.34;5083153;28;20070;-79
2023/01/06 01:44:56;;;;;;;5.28;1.70;;;;;;;8.22;100.00;99599.25;5082157;28;20714;-79
2023/01/06 01:47:30;;;;;;;5.38;2.20;;;;;;;8.36;100.00;99584.25;5079518;28;20045;-79
2023/01/06 01:50:04;;;;;;;4.13;2.20;;;;;;;8.24;100.00;99588.25;5085807;28;20035;-79
2023/01/06 01:52:33;;;;;;;7.40;2.35;;;;;;;8.02;100.00;99581.47;5090606;28;20062;-79
2023/01/06 01:55:01;;;;;;;6.82;3.03;;;;;;;8.03;100.00;99575.91;5083181;28;20101;-79
2023/01/06 01:57:32;;;;;;;4.75;2.05;;;;;;;8.23;100.00;99600.06;5094924;28;20407;-79
2023/01/06 02:00:01;;;;;;;5.72;3.05;;;;;;;8.16;100.00;99575.50;5076997;28;20051;-79
2023/01/06 02:02:31;;;;;;;3.78;1.92;;;;;;;8.10;100.00;99582.41;5079112;28;20055;-79
2023/01/06 02:04:57;;;;;;;3.42;2.17;;;;;;;8.01;100.00;99593.31;5089019;28;20518;-79
2023/01/06 02:07:27;;;;;;;3.95;2.50;;;;;;;8.07;100.00;99590.84;5084447;28;20134;-79
2023/01/06 02:10:02;;;;;;;5.23;2.13;;;;;;;7.86;100.00;99566.81;5087465;28;20050;-79
2023/01/06 02:12:29;;;;;;;3.72;2.00;;;;;;;8.03;100.00;99572.38;5092178;28;20309;-79
2023/01/06 02:14:55;;;;;;;6.68;2.50;;;;;;;7.95;100.00;99578.56;5095402;28;20048;-79
2023/01/06 02:17:48;;;;;;;3.60;2.47;;;;;;;7.78;100.00;99559.50;5088099;28;20402;-79
2023/01/06 02:20:29;;;;;;;5.95;2.55;;;;;;;7.83;100.00;99572.56;5081185;28;20399;-79
2023/01/06 02:23:40;;;;;;;5.72;2.22;;;;;;;7.83;100.00;99560.84;5087372;28;20055;-79
2023/01/06 02:26:48;;;;;;;5.90;1.90;;;;;;;7.77;100.00;99548.81;5084028;28;20051;-79
2023/01/06 02:30:03;;;;;;;4.57;2.70;;;;;;;7.98;100.00;99572.84;5081539;28;20059;-79
2023/01/06 02:32:53;;;;;;;4.85;2.28;;;;;;;7.85;100.00;99572.41;5087673;28;20047;-79
2023/01/06 02:35:37;;;;;;;4.13;2.35;;;;;;;8.00;100.00;99578.94;5086588;28;20040;-79
2023/01/06 02:38:12;;;;;;;3.70;2.00;;;;;;;7.96;100.00;99561.28;5087127;28;20138;-78
2023/01/06 02:40:57;;;;;;;6.13;2.90;;;;;;;7.67;100.00;99548.91;5087962;28;20044;-78
2023/01/06 02:43:29;;;;;;;4.68;2.28;;;;;;;7.72;100.00;99570.94;5083097;28;20055;-78
2023/01/06 02:46:07;;;;;;;4.00;2.05;;;;;;;7.68;100.00;99565.97;5084956;28;20044;-78
2023/01/06 02:48:44;;;;;;;4.43;1.70;;;;;;;7.52;100.00;99545.91;5089209;28;20040;-79
2023/01/06 02:51:16;;;;;;;1.83;1.58;;;;;;;7.65;100.00;99563.59;5079150;28;20135;-79
2023/01/06 02:53:53;;;;;;;5.30;1.75;;;;;;;7.65;100.00;99569.00;5088446;28;20046;-79
2023/01/06 02:56:24;;;;;;;3.10;2.03;;;;;;;7.67;100.00;99565.16;5086787;28;20131;-78
2023/01/06 02:58:55;;;;;;;5.30;2.03;;;;;;;7.68;100.00;99572.25;5080575;28;20095;-79
2023/01/06 03:01:26;;;;;;;7.10;2.50;;;;;;;7.70;100.00;99558.56;5088295;28;20036;-78
2023/01/06 03:03:59;;;;;;;4.57;2.45;;;;;;;7.79;100.00;99557.63;5087949;28;20048;-79
2023/01/06 03:06:29;;;;;;;4.70;2.10;;;;;;;7.85;100.00;99562.41;5087499;28;20046;-78
2023/01/06 03:08:58;;;;;;;4.63;3.20;;;;;;;7.67;100.00;99551.63;5085411;28;20048;-79
2023/01/06 03:11:26;;;;;;;7.63;2.28;;;;;;;7.70;100.00;99566.69;5084602;28;20044;-79
2023/01/06 03:13:59;;;;;;;7.13;2.42;;;;;;;7.63;100.00;99571.88;5073157;28;20055;-79
2023/01/06 03:16:26;;;;;;;6.45;2.05;;;;;;;7.57;100.00;99558.97;5079264;28;20050;-78
2023/01/06 03:18:55;;;;;;;6.47;2.03;;;;;;;7.58;100.00;99563.38;5087663;28;20511;-78
2023/01/06 03:21:24;;;;;;;9.90;2.13;;;;;;;7.53;100.00;99544.91;5085724;28;20408;-78
2023/01/06 03:23:52;;;;;;;7.28;2.22;;;;;;;7.67;100.00;99554.31;5081794;28;20049;-78
2023/01/06 03:26:19;;;;;;;5.30;1.80;;;;;;;7.66;100.00;99549.06;5089159;28;20054;-78
2023/01/06 03:28:45;;;;;;;4.95;1.98;;;;;;;7.59;100.00;99549.69;5088147;28;20407;-79
2023/01/06 03:31:20;;;;;;;4.82;2.00;;;;;;;7.61;100.00;99536.00;5076713;28;20045;-78
2023/01/06 03:33:56;;;;;;;3.33;1.95;;;;;;;7.46;100.00;99515.94;5074430;28;20065;-78
2023/01/06 03:36:30;;;;;;;3.83;2.47;;;;;;;7.42;100.00;99531.59;5087757;28;20044;-78
2023/01/06 03:39:07;;;;;;;3.20;1.98;;;;;;;7.37;100.00;99523.13;5077896;28;20041;-78
2023/01/06 03:44:34;;;;;;;5.93;2.00;;;;;;;7.29;100.00;99539.25;5075491;28;20086;-78
2023/01/06 03:47:07;;;;;;;5.63;2.42;;;;;;;7.30;100.00;99559.91;5080959;28;20036;-78
2023/01/06 03:49:43;;;;;;;8.90;3.15;;;;;;;7.12;100.00;99533.72;5083327;28;20093;-79
2023/01/06 03:52:19;;;;;;;5.18;3.13;;;;;;;7.25;100.00;99536.03;5076082;28;20047;-79
2023/01/06 03:54:54;;;;;;;5.45;2.63;;;;;;;7.22;100.00;99537.19;5083825;28;20040;-78
2023/01/06 03:57:24;;;;;;;6.97;3.03;;;;;;;7.35;100.00;99539.50;5085630;28;20105;-78
2023/01/06 03:59:55;;;;;;;5.50;3.00;;;;;;;7.32;100.00;99538.97;5085198;28;20067;-78
2023/01/06 04:02:22;;;;;;;7.78;2.58;;;;;;;7.20;100.00;99520.28;5083872;28;20048;-78
2023/01/06 04:05:06;;;;;;;6.47;3.15;;;;;;;7.13;100.00;99529.16;5085838;28;20075;-79
2023/01/06 04:07:33;;;;;;;5.00;2.78;;;;;;;7.15;100.00;99546.06;5089043;28;20134;-79
2023/01/06 04:09:59;;;;;;;10.00;4.28;;;;;;;7.11;100.00;99518.50;5089508;28;20047;-79
2023/01/06 04:12:38;;;;;;;6.57;2.60;;;;;;;7.29;100.00;99526.59;5082109;28;20041;-78
2023/01/06 04:15:06;;;;;;;8.23;2.83;;;;;;;7.27;100.00;99544.81;5086938;28;20062;-78
2023/01/06 04:17:33;;;;;;;8.70;2.60;;;;;;;7.15;100.00;99521.72;5082863;28;20070;-79
2023/01/06 04:19:59;;;;;;;5.22;3.00;;;;;;;7.14;100.00;99515.47;5081392;28;20045;-79
2023/01/06 04:22:27;;;;;;;6.38;3.50;;;;;;;7.15;100.00;99535.25;5080285;28;20044;-79
2023/01/06 04:24:54;;;;;;;6.63;2.50;;;;;;;7.25;100.00;99549.56;5090429;28;20048;-79
2023/01/06 04:27:20;;;;;;;4.75;2.78;;;;;;;7.13;100.00;99540.81;5083730;28;20041;-79
2023/01/06 04:29:47;;;;;;;8.05;3.65;;;;;;;7.11;100.00;99540.13;5087938;28;20117;-78
2023/01/06 04:32:13;;;;;;;6.28;3.08;;;;;;;7.13;100.00;99554.31;5086900;28;20040;-79
2023/01/06 04:34:40;;;;;;;6.38;3.17;;;;;;;7.14;100.00;99545.22;5090238;28;20566;-79
2023/01/06 04:37:07;;;;;;;9.95;3.42;;;;;;;7.05;100.00;99525.34;5084827;28;20071;-79
2023/01/06 04:39:34;;;;;;;6.43;3.65;;;;;;;7.05;100.00;99525.34;5088083;28;20044;-78
2023/01/06 04:42:01;;;;;;;6.68;2.95;;;;;;;7.01;100.00;99529.38;5089840;28;20051;-79
2023/01/06 04:44:28;;;;;;;4.72;2.90;;;;;;;7.17;100.00;99536.81;5087650;28;20068;-79
2023/01/06 04:46:54;;;;;;;6.43;2.60;;;;;;;7.11;100.00;99532.00;5089472;28;20055;-79
2023/01/06 04:49:21;;;;;;;8.05;3.08;;;;;;;7.17;100.00;99511.63;5088418;28;20063;-79
2023/01/06 04:51:47;;;;;;;10.35;3.25;;;;;;;7.32;100.00;99534.41;5093525;28;20131;-79
2023/01/06 04:54:14;;;;;;;5.50;2.35;;;;;;;7.17;100.00;99523.28;5086576;28;20418;-79
2023/01/06 04:56:41;;;;;;;3.78;2.60;;;;;;;7.06;100.00;99505.44;5094022;28;20055;-79
2023/01/06 04:59:08;;;;;;;7.70;3.10;;;;;;;7.22;100.00;99525.53;5083352;28;20044;-79
2023/01/06 05:01:35;;;;;;;8.50;2.97;;;;;;;7.02;100.00;99512.16;5089359;28;20716;-79
2023/01/06 05:04:01;;;;;;;11.52;2.38;;;;;;;7.18;100.00;99513.31;5083155;28;20082;-79
2023/01/06 05:06:28;;;;;;;5.30;3.00;;;;;;;7.15;100.00;99508.22;5088238;28;20046;-79
2023/01/06 05:08:55;;;;;;;6.00;3.03;;;;;;;7.25;100.00;99511.69;5084356;28;20072;-79
2023/01/06 05:11:23;;;;;;;7.53;2.70;;;;;;;7.27;100.00;99506.97;5093637;28;20468;-79
2023/01/06 05:13:52;;;;;;;8.32;2.92;;;;;;;7.31;100.00;99513.78;5090044;28;20495;-79
2023/01/06 05:16:20;;;;;;;4.55;2.60;;;;;;;7.28;100.00;99500.56;5086880;28;20468;-79
2023/01/06 05:18:47;;;;;;;5.55;2.80;;;;;;;7.26;100.00;99498.00;5092921;28;20085;-79
2023/01/06 05:21:13;;;;;;;6.15;2.65;;;;;;;7.35;100.00;99519.72;5093307;28;20036;-79
2023/01/06 05:23:40;;;;;;;4.80;2.88;;;;;;;7.28;100.00;99507.84;5090525;28;20051;-79
2023/01/06 05:26:09;;;;;;;4.85;3.17;;;;;;;7.28;100.00;99500.56;5078227;28;20040;-79
2023/01/06 05:28:35;;;;;;;3.67;2.78;;;;;;;7.31;100.00;99492.13;5090381;28;20047;-79
2023/01/06 05:31:05;;;;;;;5.57;3.05;;;;;;;7.32;100.00;99509.22;5092415;28;20052;-79
2023/01/06 05:33:32;;;;;;;6.43;3.03;;;;;;;7.35;100.00;99501.63;5087014;28;20055;-79
2023/01/06 05:35:59;;;;;;;3.60;2.55;;;;;;;7.31;100.00;99478.59;5093424;28;20480;-79
2023/01/06 05:38:25;;;;;;;6.10;2.75;;;;;;;7.47;100.00;99515.78;5092570;28;20407;-80
2023/01/06 05:40:52;;;;;;;7.40;4.13;;;;;;;7.40;100.00;99485.78;5084640;28;20049;-79
2023/01/06 05:43:19;;;;;;;8.85;5.30;;;;;;;7.41;100.00;99492.06;5090903;28;20044;-79
2023/01/06 05:45:46;;;;;;;6.50;3.78;;;;;;;7.32;100.00;99483.03;5082605;28;20059;-79
2023/01/06 05:48:14;;;;;;;4.63;2.90;;;;;;;7.40;100.00;99498.47;5093325;28;20051;-79
2023/01/06 05:50:40;;;;;;;7.72;2.80;;;;;;;7.43;100.00;99490.03;5092669;28;20051;-79
2023/01/06 05:53:07;;;;;;;12.18;3.03;;;;;;;7.57;100.00;99510.25;5085777;28;20479;-79
2023/01/06 05:55:33;;;;;;;4.45;2.33;;;;;;;7.44;100.00;99489.88;5089614;28;20039;-79
2023/01/06 05:58:00;;;;;;;6.13;3.13;;;;;;;7.36;100.00;99464.63;5091659;28;20048;-79
2023/01/06 06:00:27;;;;;;;6.20;2.90;;;;;;;7.42;100.00;99474.81;5091621;28;20059;-79
2023/01/06 06:02:53;;;;;;;6.70;2.65;;;;;;;7.64;100.00;99507.78;5092100;28;20044;-79
2023/01/06 06:05:21;;;;;;;4.88;2.50;;;;;;;7.41;100.00;99483.94;5091786;28;20047;-79
2023/01/06 06:07:52;;;;;;;11.30;2.45;;;;;;;7.55;100.00;99506.88;5091576;28;20419;-78
2023/01/06 06:10:19;;;;;;;3.83;2.08;;;;;;;7.40;100.00;99479.53;5082520;28;20056;-78
2023/01/06 06:12:45;;;;;;;6.97;2.10;;;;;;;7.49;100.00;99497.53;5082074;28;20044;-78
2023/01/06 06:15:12;;;;;;;4.03;2.63;;;;;;;7.42;100.00;99494.59;5090199;28;20523;-78
2023/01/06 06:17:38;;;;;;;6.10;3.08;;;;;;;7.55;100.00;99523.94;5092406;28;20087;-79
2023/01/06 06:20:06;;;;;;;5.75;2.80;;;;;;;7.55;100.00;99520.41;5088524;28;20074;-79
2023/01/06 06:22:34;;;;;;;5.88;3.15;;;;;;;7.53;100.00;99479.97;5086424;28;20040;-79
2023/01/06 06:25:00;;;;;;;8.30;2.75;;;;;;;7.53;100.00;99509.75;5089302;28;20040;-78
2023/01/06 06:27:27;;;;;;;4.10;2.63;;;;;;;7.61;100.00;99525.19;5092292;28;20134;-78
2023/01/06 06:29:54;;;;;;;4.85;2.53;;;;;;;7.52;100.00;99520.72;5090217;28;20052;-78
2023/01/06 06:32:20;;;;;;;4.05;2.90;;;;;;;7.62;100.00;99527.72;5081411;28;20048;-78
2023/01/06 06:34:47;;;;;;;7.13;3.10;;;;;;;7.61;100.00;99520.59;5089051;28;20116;-78
2023/01/06 06:37:13;;;;;;;5.78;3.40;;;;;;;7.74;100.00;99536.44;5090560;28;20052;-78
2023/01/06 06:39:41;;;;;;;4.70;3.20;;;;;;;7.53;100.00;99514.31;5092064;28;20411;-78
2023/01/06 06:42:08;;;;;;;9.80;3.42;;;;;;;7.81;100.00;99520.41;5090625;28;20036;-78
2023/01/06 06:44:34;;;;;;;6.25;3.70;;;;;;;7.88;100.00;99521.50;5092060;28;20047;-78
2023/01/06 06:47:01;;;;;;;5.30;3.28;;;;;;;7.57;100.00;99511.13;5086982;28;20051;-78
2023/01/06 06:49:27;;;;;;;5.88;3.30;;;;;;;7.78;100.00;99542.38;5091025;28;20047;-78
2023/01/06 06:51:54;;;;;;;7.43;3.38;;;;;;;7.55;100.00;99517.69;5084342;28;20391;-79
2023/01/06 06:54:20;;;;;;;5.55;3.47;;;;;;;7.55;100.00;99515.00;5090103;28;20048;-78
2023/01/06 06:56:48;;;;;;;8.57;3.90;;;;;;;7.62;100.00;99532.31;5084174;28;20064;-78
2023/01/06 06:59:15;;;;;;;4.50;3.58;;;;;;;7.67;100.00;99538.09;5091314;28;20047;-79
2023/01/06 07:01:41;;;;;;;6.28;3.60;;;;;;;7.68;100.00;99545.19;5085347;28;20055;-78
2023/01/06 07:04:08;;;;;;;5.95;3.30;;;;;;;7.56;100.00;99538.34;5089339;28;20410;-78
2023/01/06 07:06:35;;;;;;;6.55;3.78;;;;;;;7.69;100.00;99562.28;5084441;28;20408;-79
2023/01/06 07:09:02;;;;;;;8.63;5.60;;;;;;;7.55;100.00;99550.16;5083297;28;20117;-79
2023/01/06 07:11:29;;;;;;;8.27;5.38;;;;;;;7.65;100.00;99567.16;5075167;28;20070;-79
2023/01/06 07:13:57;;;;;;;9.40;5.80;;;;;;;7.54;100.00;99533.09;5081273;28;20054;-79
2023/01/06 07:16:25;;;;;;;11.98;6.72;;;;;;;7.67;100.00;99561.59;5087167;28;20048;-79
2023/01/06 07:18:52;;;;;;;8.13;5.22;;;;;;;7.58;100.00;99531.75;5090707;28;20052;-78
2023/01/06 07:21:18;;;;;;;9.43;4.80;;;;;;;7.48;100.00;99533.69;5086872;28;20051;-79
2023/01/06 07:23:45;;;;;;;9.38;4.75;;;;;;;7.60;100.00;99566.75;5087043;28;20399;-79
2023/01/06 07:26:14;;;;;;;8.57;4.32;;;;;;;7.48;100.00;99546.38;5082059;28;20056;-76
2023/01/06 07:28:40;;;;;;;12.50;5.50;;;;;;;7.42;100.00;99545.13;5086311;28;20056;-76
2023/01/06 07:31:08;;;;;;;8.30;4.78;;;;;;;7.51;100.00;99592.06;5089067;28;20403;-76
2023/01/06 07:33:35;;;;;;;7.40;4.38;;;;;;;7.50;100.00;99574.97;5076046;28;20044;-76
2023/01/06 07:36:01;;;;;;;6.70;4.45;;;;;;;7.49;100.00;99577.84;5092421;28;20054;-76
2023/01/06 07:38:28;;;;;;;8.35;4.90;;;;;;;7.57;100.00;99586.88;5081556;28;20101;-76
2023/01/06 07:40:58;;;;;;;8.75;4.75;;;;;;;7.60;100.00;99583.00;5090769;28;20047;-76
2023/01/06 07:43:25;;;;;;;8.52;4.90;;;;;;;7.49;100.00;99575.13;5084310;28;20040;-78
2023/01/06 07:45:51;;;;;;;7.53;5.22;;;;;;;7.40;100.00;99585.88;5079591;28;20056;-78
2023/01/06 07:48:19;;;;;;;6.35;4.38;;;;;;;7.59;100.00;99608.38;5087927;28;20048;-78
2023/01/06 07:50:46;;;;;;;11.52;5.88;;;;;;;7.58;100.00;99607.50;5081274;28;20048;-78
2023/01/06 07:53:13;;;;;;;8.50;3.63;;;;;;;7.68;100.00;99607.44;5088982;28;20047;-78
2023/01/06 07:55:39;;;;;;;4.05;1.80;;;;;;;7.68;100.00;99601.16;5081965;28;20055;-79
2023/01/06 07:58:07;;;;;;;3.33;1.10;;;;;;;7.80;100.00;99619.72;5089710;28;20044;-79
2023/01/06 08:00:34;;;;;;;3.58;1.55;;;;;;;7.73;100.00;99613.22;5088368;28;20054;-79
2023/01/06 08:03:03;;;;;;;2.58;1.33;;;;;;;7.75;100.00;99613.94;5082361;28;20054;-79
2023/01/06 08:05:31;;;;;;;7.60;2.42;;;;;;;7.63;100.00;99590.81;5086451;28;20051;-79
2023/01/06 08:07:58;;;;;;;4.15;1.40;;;;;;;7.74;100.00;99606.81;5084097;28;20044;-79
2023/01/06 08:10:24;;;;;;;3.05;1.55;;;;;;;7.72;100.00;99610.69;5083108;28;20044;-79
2023/01/06 08:12:51;;;;;;;4.07;1.42;;;;;;;7.85;100.00;99615.72;5083433;28;20059;-79
2023/01/06 08:15:18;;;;;;;0.90;0.80;;;;;;;7.83;100.00;99604.16;5090742;28;20052;-79
2023/01/06 08:17:44;;;;;;;2.38;1.50;;;;;;;7.93;100.00;99608.50;5086792;28;20052;-79
2023/01/06 08:20:11;;;;;;;7.80;1.30;;;;;;;7.93;100.00;99618.47;5088795;28;20273;-79
2023/01/06 08:22:39;;;;;;;1.52;1.13;;;;;;;7.92;100.00;99614.09;5088704;28;20123;-79
2023/01/06 08:25:08;;;;;;;1.30;1.10;;;;;;;7.84;100.00;99595.06;5094202;28;20048;-79
2023/01/06 08:27:34;;;;;;;5.13;2.00;;;;;;;7.79;100.00;99580.13;5092991;28;20051;-79
2023/01/06 08:30:01;;;;;;;1.55;1.13;;;;;;;7.85;100.00;99588.63;5094020;28;20105;-79
2023/01/06 08:32:27;;;;;;;6.25;1.83;;;;;;;8.03;100.00;99615.69;5091503;28;20051;-80
2023/01/06 08:34:54;;;;;;;5.75;1.73;;;;;;;8.06;100.00;99610.78;5091530;28;20056;-80
2023/01/06 08:37:21;;;;;;;4.10;1.58;;;;;;;8.05;100.00;99614.50;5091869;28;20499;-80
2023/01/06 08:39:48;;;;;;;5.70;1.77;;;;;;;8.09;100.00;99618.59;5090038;28;20044;-80
2023/01/06 08:42:15;;;;;;;2.75;1.80;;;;;;;8.14;100.00;99619.00;5093623;28;20044;-81
2023/01/06 08:44:42;;;;;;;2.78;1.50;;;;;;;8.16;100.00;99613.41;5093001;28;20056;-80
2023/01/06 08:47:08;;;;;;;4.60;1.33;;;;;;;8.07;100.00;99620.63;5091651;28;20044;-81
2023/01/06 08:49:35;;;;;;;4.05;1.40;;;;;;;8.05;100.00;99613.66;5089368;28;20063;-80
2023/01/06 08:52:01;;;;;;;2.00;1.40;;;;;;;8.15;100.00;99623.38;5092969;28;20150;-80
2023/01/06 08:54:28;;;;;;;1.25;1.13;;;;;;;8.13;100.00;99614.56;5091177;28;20051;-80
2023/01/06 08:56:57;;;;;;;1.67;1.20;;;;;;;8.23;100.00;99619.03;5092220;28;20081;-81
2023/01/06 08:59:23;;;;;;;8.02;3.30;;;;;;;8.19;100.00;99609.53;5094012;28;20489;-81
2023/01/06 09:01:50;;;;;;;1.83;1.17;;;;;;;8.35;100.00;99639.44;5092695;28;20062;-81
2023/01/06 09:04:17;;;;;;;6.82;1.48;;;;;;;8.33;100.00;99628.75;5092931;28;20035;-80
2023/01/06 09:06:46;;;;;;;5.53;1.88;;;;;;;8.47;100.00;99640.06;5092032;28;20050;-81
2023/01/06 09:09:13;;;;;;;7.07;2.28;;;;;;;8.48;100.00;99639.91;5093726;28;20560;-80
2023/01/06 09:11:41;;;;;;;6.38;2.67;;;;;;;8.42;100.00;99621.53;5093954;28;20040;-81
2023/01/06 09:14:09;;;;;;;5.82;2.17;;;;;;;8.53;100.00;99642.13;5093225;28;20044;-81
2023/01/06 09:16:35;;;;;;;7.13;2.92;;;;;;;8.54;100.00;99637.56;5090499;28;20044;-80
2023/01/06 09:19:02;;;;;;;6.28;2.03;;;;;;;8.44;100.00;99622.25;5092610;28;20056;-81
2023/01/06 09:21:28;;;;;;;1.70;1.35;;;;;;;8.47;100.00;99634.63;5093359;28;20083;-80
2023/01/06 09:23:55;;;;;;;1.73;1.17;;;;;;;8.60;100.00;99645.91;5091519;28;20055;-81
2023/01/06 09:26:21;;;;;;;1.63;1.30;;;;;;;8.62;100.00;99653.88;5091545;28;20059;-80
2023/01/06 09:28:48;;;;;;;1.67;1.35;;;;;;;8.84;100.00;99669.56;5092728;28;20048;-81
2023/01/06 09:31:17;;;;;;;1.20;0.98;;;;;;;8.82;100.00;99660.78;5096852;28;20050;-80
2023/01/06 09:33:44;;;;;;;2.75;1.33;;;;;;;8.78;100.00;99651.25;5086926;28;20058;-80
2023/01/06 09:36:10;;;;;;;1.45;1.15;;;;;;;8.90;100.00;99669.94;5092630;28;20052;-80
2023/01/06 09:38:52;;;;;;;1.55;1.00;;;;;;;8.98;100.00;99661.84;5093017;28;20048;-80
2023/01/06 09:41:41;;;;;;;1.90;1.15;;;;;;;9.01;100.00;99659.66;5084969;28;20043;-80
2023/01/06 09:44:13;;;;;;;3.47;1.35;;;;;;;9.12;100.00;99672.09;5092803;28;20052;-81
2023/01/06 09:46:44;;;;;;;2.38;1.30;;;;;;;9.23;100.00;99660.09;5092055;28;20044;-80
2023/01/06 09:49:17;;;;;;;1.65;1.15;;;;;;;9.16;100.00;99654.47;5087981;28;20052;-80
2023/01/06 09:51:44;;;;;;;1.30;1.17;;;;;;;9.27;100.00;99657.91;5087257;28;20048;-80
2023/01/06 09:54:17;;;;;;;1.92;0.80;;;;;;;9.29;100.00;99650.44;5084259;28;20483;-80
2023/01/06 09:56:49;;;;;;;1.65;1.10;;;;;;;9.39;100.00;99664.72;5085998;28;20052;-80
2023/01/06 09:59:21;;;;;;;3.30;1.17;;;;;;;9.32;100.00;99650.09;5093108;28;20122;-80
2023/01/06 10:01:50;;;;;;;8.25;1.33;;;;;;;9.19;100.00;99637.00;5083370;28;20083;-80
2023/01/06 10:04:22;;;;;;;4.15;0.98;;;;;;;9.11;100.00;99645.97;5092194;28;20044;-80
2023/01/06 10:06:59;;;;;;;2.42;1.27;;;;;;;9.23;100.00;99654.66;5086451;28;20404;-80
2023/01/06 10:09:32;;;;;;;1.92;1.02;;;;;;;9.24;100.00;99644.66;5079027;28;20040;-80
2023/01/06 10:12:11;;;;;;;1.75;1.00;;;;;;;9.44;100.00;99643.38;5091260;28;20079;-80
2023/01/06 10:14:47;;;;;;;2.25;1.08;;;;;;;9.38;100.00;99625.03;5085239;28;20423;-80
2023/01/06 10:17:33;;;;;;;2.95;0.88;;;;;;;9.46;100.00;99640.50;5077656;28;20430;-80
2023/01/06 10:20:16;;;;;;;2.40;1.00;;;;;;;9.48;100.00;99605.88;5083357;28;20045;-80
2023/01/06 10:22:52;;;;;;;1.00;0.75;;;;;;;9.46;100.00;99603.34;5078422;28;20053;-80
2023/01/06 10:25:20;;;;;;;3.40;0.82;;;;;;;9.42;100.00;99603.84;5081292;28;20036;-81
2023/01/06 10:27:50;;;;;;;1.52;0.65;;;;;;;9.51;100.00;99622.66;5081793;28;20045;-80
2023/01/06 10:30:20;;;;;;;0.70;0.60;;;;;;;9.42;100.00;99582.13;5092193;28;20045;-80
2023/01/06 10:32:49;;;;;;;2.92;1.63;;;;;;;9.39;100.00;99596.88;5087589;28;20490;-80
2023/01/06 10:35:18;;;;;;;0.93;0.77;;;;;;;9.39;100.00;99589.59;5092506;28;20052;-80
2023/01/06 10:37:47;;;;;;;2.88;1.00;;;;;;;9.29;100.00;99586.19;5092319;28;20048;-80
2023/01/06 10:40:19;;;;;;;2.47;0.65;;;;;;;9.23;100.00;99569.69;5089660;28;20139;-81
2023/01/06 10:42:59;;;;;;;0.95;0.63;;;;;;;9.27;100.00;99585.47;5089143;28;20098;-80
2023/01/06 10:45:29;;;;;;;0.30;0.30;;;;;;;9.27;100.00;99579.22;5083697;28;20083;-80
2023/01/06 10:47:59;;;;;;;0.80;0.50;;;;;;;9.53;100.00;99617.09;5090951;28;20071;-80
2023/01/06 10:50:26;;;;;;;2.33;0.73;;;;;;;9.56;100.00;99617.59;5089717;28;20044;-82
2023/01/06 10:52:53;;;;;;;0.85;0.65;;;;;;;9.57;100.00;99618.44;5088661;28;20047;-80
2023/01/06 10:55:43;;;;;;;1.83;0.52;;;;;;;9.44;100.00;99593.66;5091695;28;20044;-80
2023/01/06 10:58:21;;;;;;;;;;;;;;;9.55;100.00;99613.19;5080478;28;20055;-81
2023/01/06 11:00:59;;;;;;;1.73;0.60;;;;;;;9.48;100.00;99597.75;5090333;28;19920;-80
2023/01/06 11:03:28;;;;;;;3.20;1.23;;;;;;;9.39;100.00;99588.72;5090786;28;20097;-80
2023/01/06 11:06:08;;;;;;;0.50;0.50;;;;;;;9.44;100.00;99599.94;5082611;28;20057;-80
2023/01/06 11:08:36;;;;;;;1.65;0.70;;;;;;;9.32;100.00;99593.13;5088748;28;20047;-81
2023/01/06 11:11:08;;;;;;;1.10;0.60;;;;;;;9.33;100.00;99582.13;5091576;28;20384;-80
2023/01/06 11:13:37;;;;;;;2.42;0.90;;;;;;;9.52;100.00;99601.81;5085012;28;20136;-80
2023/01/06 11:16:07;;;;;;;1.83;0.95;;;;;;;9.60;100.00;99599.09;5089148;28;20537;-81
2023/01/06 11:18:37;;;;;;;0.60;0.60;;;;;;;9.48;100.00;99589.59;5091500;28;20324;-81
2023/01/06 11:21:07;;;;;;;1.70;0.60;;;;;;;9.49;100.00;99584.00;5088006;28;20052;-81
2023/01/06 11:23:33;;;;;;;;;;;;;;;9.68;100.00;99595.53;5090792;28;20385;-81
2023/01/06 11:26:09;;;;;;;1.67;0.88;;;;;;;9.51;100.00;99567.53;5091634;28;19920;-80
2023/01/06 11:28:36;;;;;;;3.63;1.13;;;;;;;9.68;100.00;99596.41;5087018;28;20126;-80
2023/01/06 11:31:06;;;;;;;4.07;1.88;;;;;;;9.71;100.00;99589.78;5089131;28;20135;-80
2023/01/06 11:33:37;;;;;;;2.25;0.95;;;;;;;9.55;100.00;99564.31;5086163;28;20109;-80
2023/01/06 11:36:10;;;;;;;0.38;0.38;;;;;;;9.60;100.00;99561.09;5085063;28;20067;-80
2023/01/06 11:38:44;;;;;;;1.08;0.73;;;;;;;9.82;100.00;99594.06;5089770;28;20047;-80
2023/01/06 11:41:13;;;;;;;1.67;0.82;;;;;;;9.88;100.00;99594.19;5091355;28;20047;-80
2023/01/06 11:43:45;;;;;;;1.60;1.15;;;;;;;9.73;100.00;99574.19;5088102;28;20052;-80
2023/01/06 11:46:13;;;;;;;1.70;0.70;;;;;;;9.65;100.00;99566.03;5077540;28;20055;-80
2023/01/06 11:48:44;;;;;;;1.58;0.50;;;;;;;9.69;100.00;99581.81;5085624;28;20056;-80